sensor_id;sensor_type;location;lat;lon;timestamp;P1;durP1;ratioP1;P2;durP2;ratioP2
69401;SDS011;56589;51.992;5.924;2023-02-28T00:00:25;7.07;;;2.45;;
69401;SDS011;56589;51.992;5.924;2023-02-28T00:02:51;6.88;;;2.70;;
69401;SDS011;56589;51.992;5.924;2023-02-28T00:05:18;5.57;;;2.40;;
69401;SDS011;56589;51.992;5.924;2023-02-28T00:07:48;5.63;;;2.05;;
69401;SDS011;56589;51.992;5.924;2023-02-28T00:10:15;6.13;;;2.33;;
69401;SDS011;56589;51.992;5.924;2023-02-28T00:12:43;5.57;;;2.33;;
69401;SDS011;56589;51.992;5.924;2023-02-28T00:15:10;7.88;;;2.38;;
69401;SDS011;56589;51.992;5.924;2023-02-28T00:17:38;4.90;;;2.30;;
69401;SDS011;56589;51.992;5.924;2023-02-28T00:20:05;5.47;;;3.15;;
69401;SDS011;56589;51.992;5.924;2023-02-28T00:22:34;7.72;;;2.22;;
69401;SDS011;56589;51.992;5.924;2023-02-28T00:25:00;4.40;;;2.47;;
69401;SDS011;56589;51.992;5.924;2023-02-28T00:27:25;5.97;;;3.88;;
69401;SDS011;56589;51.992;5.924;2023-02-28T00:29:51;5.10;;;2.70;;
69401;SDS011;56589;51.992;5.924;2023-02-28T00:32:17;4.50;;;2.33;;
69401;SDS011;56589;51.992;5.924;2023-02-28T00:34:45;6.95;;;2.47;;
69401;SDS011;56589;51.992;5.924;2023-02-28T00:37:11;6.53;;;2.75;;
69401;SDS011;56589;51.992;5.924;2023-02-28T00:39:37;4.43;;;2.90;;
69401;SDS011;56589;51.992;5.924;2023-02-28T00:42:04;4.38;;;2.70;;
69401;SDS011;56589;51.992;5.924;2023-02-28T00:44:31;4.38;;;2.50;;
69401;SDS011;56589;51.992;5.924;2023-02-28T00:46:58;6.20;;;2.70;;
69401;SDS011;56589;51.992;5.924;2023-02-28T00:49:25;10.02;;;2.97;;
69401;SDS011;56589;51.992;5.924;2023-02-28T00:51:55;6.35;;;2.50;;
69401;SDS011;56589;51.992;5.924;2023-02-28T00:54:21;5.75;;;2.58;;
69401;SDS011;56589;51.992;5.924;2023-02-28T00:56:49;4.95;;;2.50;;
69401;SDS011;56589;51.992;5.924;2023-02-28T00:59:16;7.93;;;2.47;;
69401;SDS011;56589;51.992;5.924;2023-02-28T01:01:43;6.03;;;2.40;;
69401;SDS011;56589;51.992;5.924;2023-02-28T01:04:11;5.30;;;2.42;;
69401;SDS011;56589;51.992;5.924;2023-02-28T01:06:38;4.50;;;2.63;;
69401;SDS011;56589;51.992;5.924;2023-02-28T01:09:08;5.00;;;2.67;;
69401;SDS011;56589;51.992;5.924;2023-02-28T01:11:34;4.70;;;2.40;;
69401;SDS011;56589;51.992;5.924;2023-02-28T01:14:00;7.75;;;2.70;;
69401;SDS011;56589;51.992;5.924;2023-02-28T01:16:27;5.72;;;2.50;;
69401;SDS011;56589;51.992;5.924;2023-02-28T01:18:53;6.30;;;2.40;;
69401;SDS011;56589;51.992;5.924;2023-02-28T01:21:20;5.30;;;2.70;;
69401;SDS011;56589;51.992;5.924;2023-02-28T01:23:47;6.38;;;2.80;;
69401;SDS011;56589;51.992;5.924;2023-02-28T01:26:17;5.88;;;2.50;;
69401;SDS011;56589;51.992;5.924;2023-02-28T01:28:47;5.47;;;2.70;;
69401;SDS011;56589;51.992;5.924;2023-02-28T01:31:15;5.53;;;2.83;;
69401;SDS011;56589;51.992;5.924;2023-02-28T01:33:42;6.75;;;2.75;;
69401;SDS011;56589;51.992;5.924;2023-02-28T01:36:09;4.43;;;2.30;;
69401;SDS011;56589;51.992;5.924;2023-02-28T01:38:38;9.32;;;2.72;;
69401;SDS011;56589;51.992;5.924;2023-02-28T01:41:06;4.22;;;2.70;;
69401;SDS011;56589;51.992;5.924;2023-02-28T01:46:24;6.25;;;2.95;;
69401;SDS011;56589;51.992;5.924;2023-02-28T01:48:51;6.38;;;3.10;;
69401;SDS011;56589;51.992;5.924;2023-02-28T01:51:26;5.93;;;3.45;;
69401;SDS011;56589;51.992;5.924;2023-02-28T01:53:58;7.65;;;2.80;;
69401;SDS011;56589;51.992;5.924;2023-02-28T01:56:29;3.50;;;2.67;;
69401;SDS011;56589;51.992;5.924;2023-02-28T01:59:03;6.38;;;3.00;;
69401;SDS011;56589;51.992;5.924;2023-02-28T02:01:29;6.40;;;3.03;;
69401;SDS011;56589;51.992;5.924;2023-02-28T02:03:57;5.03;;;3.08;;
69401;SDS011;56589;51.992;5.924;2023-02-28T02:06:29;3.97;;;2.78;;
69401;SDS011;56589;51.992;5.924;2023-02-28T02:09:01;8.55;;;3.45;;
69401;SDS011;56589;51.992;5.924;2023-02-28T02:11:27;7.03;;;3.25;;
69401;SDS011;56589;51.992;5.924;2023-02-28T02:13:57;4.68;;;2.83;;
69401;SDS011;56589;51.992;5.924;2023-02-28T02:16:58;5.55;;;2.97;;
69401;SDS011;56589;51.992;5.924;2023-02-28T02:23:07;4.65;;;2.90;;
69401;SDS011;56589;51.992;5.924;2023-02-28T02:29:54;5.35;;;2.90;;
69401;SDS011;56589;51.992;5.924;2023-02-28T02:33:03;6.13;;;2.75;;
69401;SDS011;56589;51.992;5.924;2023-02-28T02:35:55;5.68;;;2.85;;
69401;SDS011;56589;51.992;5.924;2023-02-28T02:38:31;3.50;;;2.53;;
69401;SDS011;56589;51.992;5.924;2023-02-28T02:41:04;5.20;;;2.83;;
69401;SDS011;56589;51.992;5.924;2023-02-28T02:43:40;5.70;;;2.72;;
69401;SDS011;56589;51.992;5.924;2023-02-28T02:46:19;7.60;;;2.75;;
69401;SDS011;56589;51.992;5.924;2023-02-28T02:48:54;4.47;;;2.70;;
69401;SDS011;56589;51.992;5.924;2023-02-28T02:51:28;5.30;;;2.85;;
69401;SDS011;56589;51.992;5.924;2023-02-28T02:56:30;7.15;;;2.78;;
69401;SDS011;56589;51.992;5.924;2023-02-28T02:59:00;5.75;;;3.03;;
69401;SDS011;56589;51.992;5.924;2023-02-28T03:01:31;5.80;;;2.85;;
69401;SDS011;56589;51.992;5.924;2023-02-28T03:04:02;5.93;;;2.63;;
69401;SDS011;56589;51.992;5.924;2023-02-28T03:06:35;4.72;;;3.10;;
69401;SDS011;56589;51.992;5.924;2023-02-28T03:09:01;9.93;;;3.67;;
69401;SDS011;56589;51.992;5.924;2023-02-28T03:11:28;5.95;;;2.88;;
69401;SDS011;56589;51.992;5.924;2023-02-28T03:14:02;5.75;;;3.28;;
69401;SDS011;56589;51.992;5.924;2023-02-28T03:16:51;7.82;;;3.03;;
69401;SDS011;56589;51.992;5.924;2023-02-28T03:19:45;5.68;;;2.83;;
69401;SDS011;56589;51.992;5.924;2023-02-28T03:22:28;6.80;;;3.03;;
69401;SDS011;56589;51.992;5.924;2023-02-28T03:25:12;9.10;;;3.45;;
69401;SDS011;56589;51.992;5.924;2023-02-28T03:27:54;6.20;;;3.20;;
69401;SDS011;56589;51.992;5.924;2023-02-28T03:30:29;6.63;;;3.30;;
69401;SDS011;56589;51.992;5.924;2023-02-28T03:33:07;5.22;;;3.13;;
69401;SDS011;56589;51.992;5.924;2023-02-28T03:35:39;3.60;;;2.30;;
69401;SDS011;56589;51.992;5.924;2023-02-28T03:38:12;4.75;;;2.92;;
69401;SDS011;56589;51.992;5.924;2023-02-28T03:40:47;6.43;;;2.60;;
69401;SDS011;56589;51.992;5.924;2023-02-28T03:43:22;5.30;;;3.22;;
69401;SDS011;56589;51.992;5.924;2023-02-28T03:45:53;6.60;;;2.78;;
69401;SDS011;56589;51.992;5.924;2023-02-28T03:48:23;5.20;;;2.53;;
69401;SDS011;56589;51.992;5.924;2023-02-28T03:50:57;5.03;;;2.85;;
69401;SDS011;56589;51.992;5.924;2023-02-28T03:53:30;3.70;;;2.60;;
69401;SDS011;56589;51.992;5.924;2023-02-28T03:56:03;5.15;;;2.70;;
69401;SDS011;56589;51.992;5.924;2023-02-28T03:58:41;3.95;;;2.20;;
69401;SDS011;56589;51.992;5.924;2023-02-28T04:01:15;5.70;;;2.55;;
69401;SDS011;56589;51.992;5.924;2023-02-28T04:03:49;4.47;;;2.47;;
69401;SDS011;56589;51.992;5.924;2023-02-28T04:06:17;4.90;;;2.15;;
69401;SDS011;56589;51.992;5.924;2023-02-28T04:08:48;5.82;;;2.25;;
69401;SDS011;56589;51.992;5.924;2023-02-28T04:11:17;3.08;;;2.20;;
69401;SDS011;56589;51.992;5.924;2023-02-28T04:13:48;2.95;;;1.70;;
69401;SDS011;56589;51.992;5.924;2023-02-28T04:16:15;5.60;;;2.70;;
69401;SDS011;56589;51.992;5.924;2023-02-28T04:18:41;2.15;;;1.85;;
69401;SDS011;56589;51.992;5.924;2023-02-28T04:21:31;4.47;;;1.92;;
69401;SDS011;56589;51.992;5.924;2023-02-28T04:24:02;4.43;;;1.75;;
69401;SDS011;56589;51.992;5.924;2023-02-28T04:26:29;3.55;;;1.50;;
69401;SDS011;56589;51.992;5.924;2023-02-28T04:28:57;3.45;;;1.70;;
69401;SDS011;56589;51.992;5.924;2023-02-28T04:31:24;3.28;;;1.38;;
69401;SDS011;56589;51.992;5.924;2023-02-28T04:33:55;5.47;;;2.08;;
69401;SDS011;56589;51.992;5.924;2023-02-28T04:39:58;3.30;;;1.73;;
69401;SDS011;56589;51.992;5.924;2023-02-28T04:42:23;6.25;;;1.95;;
69401;SDS011;56589;51.992;5.924;2023-02-28T04:44:49;4.28;;;1.50;;
69401;SDS011;56589;51.992;5.924;2023-02-28T04:47:15;3.03;;;1.90;;
69401;SDS011;56589;51.992;5.924;2023-02-28T04:49:41;2.72;;;1.35;;
69401;SDS011;56589;51.992;5.924;2023-02-28T04:52:08;2.80;;;1.60;;
69401;SDS011;56589;51.992;5.924;2023-02-28T04:54:34;3.83;;;1.92;;
69401;SDS011;56589;51.992;5.924;2023-02-28T04:57:02;3.80;;;1.75;;
69401;SDS011;56589;51.992;5.924;2023-02-28T04:59:28;3.33;;;1.58;;
69401;SDS011;56589;51.992;5.924;2023-02-28T05:01:54;3.25;;;1.70;;
69401;SDS011;56589;51.992;5.924;2023-02-28T05:04:19;3.65;;;1.70;;
69401;SDS011;56589;51.992;5.924;2023-02-28T05:06:45;6.60;;;1.85;;
69401;SDS011;56589;51.992;5.924;2023-02-28T05:09:11;4.72;;;1.60;;
69401;SDS011;56589;51.992;5.924;2023-02-28T05:11:37;4.47;;;1.55;;
69401;SDS011;56589;51.992;5.924;2023-02-28T05:14:06;6.22;;;1.70;;
69401;SDS011;56589;51.992;5.924;2023-02-28T05:16:36;3.17;;;1.67;;
69401;SDS011;56589;51.992;5.924;2023-02-28T05:19:02;2.45;;;1.52;;
69401;SDS011;56589;51.992;5.924;2023-02-28T05:21:29;2.15;;;1.52;;
69401;SDS011;56589;51.992;5.924;2023-02-28T05:24:00;2.67;;;1.50;;
69401;SDS011;56589;51.992;5.924;2023-02-28T05:26:29;2.42;;;1.30;;
69401;SDS011;56589;51.992;5.924;2023-02-28T05:28:56;3.92;;;1.85;;
69401;SDS011;56589;51.992;5.924;2023-02-28T05:31:24;3.67;;;1.60;;
69401;SDS011;56589;51.992;5.924;2023-02-28T05:33:50;4.53;;;1.52;;
69401;SDS011;56589;51.992;5.924;2023-02-28T05:36:16;3.30;;;1.70;;
69401;SDS011;56589;51.992;5.924;2023-02-28T05:38:42;3.15;;;1.33;;
69401;SDS011;56589;51.992;5.924;2023-02-28T05:41:08;2.85;;;1.48;;
69401;SDS011;56589;51.992;5.924;2023-02-28T05:43:35;4.07;;;1.35;;
69401;SDS011;56589;51.992;5.924;2023-02-28T05:46:03;5.95;;;1.70;;
69401;SDS011;56589;51.992;5.924;2023-02-28T05:48:33;2.88;;;1.58;;
69401;SDS011;56589;51.992;5.924;2023-02-28T05:51:01;4.28;;;1.60;;
69401;SDS011;56589;51.992;5.924;2023-02-28T05:53:28;4.55;;;1.73;;
69401;SDS011;56589;51.992;5.924;2023-02-28T05:55:55;3.33;;;1.15;;
69401;SDS011;56589;51.992;5.924;2023-02-28T05:58:22;2.97;;;1.30;;
69401;SDS011;56589;51.992;5.924;2023-02-28T06:00:48;4.85;;;1.25;;
69401;SDS011;56589;51.992;5.924;2023-02-28T06:03:14;4.35;;;1.58;;
69401;SDS011;56589;51.992;5.924;2023-02-28T06:05:43;2.88;;;1.55;;
69401;SDS011;56589;51.992;5.924;2023-02-28T06:08:08;3.95;;;2.17;;
69401;SDS011;56589;51.992;5.924;2023-02-28T06:10:34;4.90;;;1.60;;
69401;SDS011;56589;51.992;5.924;2023-02-28T06:13:00;2.67;;;1.50;;
69401;SDS011;56589;51.992;5.924;2023-02-28T06:15:27;3.65;;;1.20;;
69401;SDS011;56589;51.992;5.924;2023-02-28T06:17:54;3.00;;;1.48;;
69401;SDS011;56589;51.992;5.924;2023-02-28T06:20:20;3.65;;;1.38;;
69401;SDS011;56589;51.992;5.924;2023-02-28T06:22:49;3.03;;;1.63;;
69401;SDS011;56589;51.992;5.924;2023-02-28T06:25:15;2.88;;;1.38;;
69401;SDS011;56589;51.992;5.924;2023-02-28T06:27:41;4.85;;;1.23;;
69401;SDS011;56589;51.992;5.924;2023-02-28T06:30:08;3.80;;;1.10;;
69401;SDS011;56589;51.992;5.924;2023-02-28T06:32:35;4.45;;;1.27;;
69401;SDS011;56589;51.992;5.924;2023-02-28T06:35:01;2.30;;;1.20;;
69401;SDS011;56589;51.992;5.924;2023-02-28T06:37:28;6.13;;;1.30;;
69401;SDS011;56589;51.992;5.924;2023-02-28T06:39:58;2.88;;;1.45;;
69401;SDS011;56589;51.992;5.924;2023-02-28T06:42:24;6.53;;;1.70;;
69401;SDS011;56589;51.992;5.924;2023-02-28T06:44:50;2.83;;;1.20;;
69401;SDS011;56589;51.992;5.924;2023-02-28T06:47:16;8.07;;;1.60;;
69401;SDS011;56589;51.992;5.924;2023-02-28T06:49:42;2.75;;;1.40;;
69401;SDS011;56589;51.992;5.924;2023-02-28T06:52:08;2.30;;;1.40;;
69401;SDS011;56589;51.992;5.924;2023-02-28T06:54:35;1.92;;;1.40;;
69401;SDS011;56589;51.992;5.924;2023-02-28T06:57:04;8.00;;;2.30;;
69401;SDS011;56589;51.992;5.924;2023-02-28T06:59:30;3.45;;;1.30;;
69401;SDS011;56589;51.992;5.924;2023-02-28T07:01:56;2.13;;;1.48;;
69401;SDS011;56589;51.992;5.924;2023-02-28T07:04:22;3.88;;;1.63;;
69401;SDS011;56589;51.992;5.924;2023-02-28T07:06:48;5.38;;;1.50;;
69401;SDS011;56589;51.992;5.924;2023-02-28T07:09:14;2.67;;;1.50;;
69401;SDS011;56589;51.992;5.924;2023-02-28T07:11:40;2.63;;;1.70;;
69401;SDS011;56589;51.992;5.924;2023-02-28T07:14:09;5.70;;;1.58;;
69401;SDS011;56589;51.992;5.924;2023-02-28T07:16:35;2.80;;;1.60;;
69401;SDS011;56589;51.992;5.924;2023-02-28T07:19:01;5.15;;;1.60;;
69401;SDS011;56589;51.992;5.924;2023-02-28T07:21:26;4.65;;;1.83;;
69401;SDS011;56589;51.992;5.924;2023-02-28T07:23:52;3.17;;;1.30;;
69401;SDS011;56589;51.992;5.924;2023-02-28T07:26:19;3.13;;;1.42;;
69401;SDS011;56589;51.992;5.924;2023-02-28T07:28:46;3.35;;;1.63;;
69401;SDS011;56589;51.992;5.924;2023-02-28T07:31:16;4.43;;;1.63;;
69401;SDS011;56589;51.992;5.924;2023-02-28T07:33:43;4.70;;;2.00;;
69401;SDS011;56589;51.992;5.924;2023-02-28T07:36:10;5.85;;;1.90;;
69401;SDS011;56589;51.992;5.924;2023-02-28T07:38:38;3.70;;;2.13;;
69401;SDS011;56589;51.992;5.924;2023-02-28T07:41:04;4.30;;;1.63;;
69401;SDS011;56589;51.992;5.924;2023-02-28T07:43:30;4.80;;;2.35;;
69401;SDS011;56589;51.992;5.924;2023-02-28T07:46:00;4.47;;;1.80;;
69401;SDS011;56589;51.992;5.924;2023-02-28T07:48:30;4.65;;;2.20;;
69401;SDS011;56589;51.992;5.924;2023-02-28T07:50:57;5.13;;;1.80;;
69401;SDS011;56589;51.992;5.924;2023-02-28T07:53:24;5.32;;;1.90;;
69401;SDS011;56589;51.992;5.924;2023-02-28T07:55:54;6.35;;;2.10;;
69401;SDS011;56589;51.992;5.924;2023-02-28T07:58:21;4.57;;;2.20;;
69401;SDS011;56589;51.992;5.924;2023-02-28T08:00:46;4.57;;;2.15;;
69401;SDS011;56589;51.992;5.924;2023-02-28T08:03:12;3.20;;;1.75;;
69401;SDS011;56589;51.992;5.924;2023-02-28T08:05:41;3.38;;;1.98;;
69401;SDS011;56589;51.992;5.924;2023-02-28T08:08:07;5.45;;;1.77;;
69401;SDS011;56589;51.992;5.924;2023-02-28T08:10:33;3.58;;;2.25;;
69401;SDS011;56589;51.992;5.924;2023-02-28T08:12:59;4.07;;;2.08;;
69401;SDS011;56589;51.992;5.924;2023-02-28T08:15:26;4.00;;;1.90;;
69401;SDS011;56589;51.992;5.924;2023-02-28T08:17:52;3.83;;;2.10;;
69401;SDS011;56589;51.992;5.924;2023-02-28T08:20:18;1.77;;;1.30;;
69401;SDS011;56589;51.992;5.924;2023-02-28T08:22:46;4.18;;;1.80;;
69401;SDS011;56589;51.992;5.924;2023-02-28T08:25:12;2.88;;;1.10;;
69401;SDS011;56589;51.992;5.924;2023-02-28T08:27:38;3.95;;;1.30;;
69401;SDS011;56589;51.992;5.924;2023-02-28T08:30:04;3.35;;;1.60;;
69401;SDS011;56589;51.992;5.924;2023-02-28T08:32:32;2.75;;;1.23;;
69401;SDS011;56589;51.992;5.924;2023-02-28T08:34:58;4.40;;;1.70;;
69401;SDS011;56589;51.992;5.924;2023-02-28T08:37:25;2.15;;;1.38;;
69401;SDS011;56589;51.992;5.924;2023-02-28T08:39:53;1.40;;;1.02;;
69401;SDS011;56589;51.992;5.924;2023-02-28T08:42:19;2.70;;;1.10;;
69401;SDS011;56589;51.992;5.924;2023-02-28T08:44:45;2.00;;;1.40;;
69401;SDS011;56589;51.992;5.924;2023-02-28T08:47:11;1.88;;;1.30;;
69401;SDS011;56589;51.992;5.924;2023-02-28T08:49:37;3.03;;;1.50;;
69401;SDS011;56589;51.992;5.924;2023-02-28T08:52:03;4.05;;;1.45;;
69401;SDS011;56589;51.992;5.924;2023-02-28T08:54:29;2.30;;;1.42;;
69401;SDS011;56589;51.992;5.924;2023-02-28T08:56:58;2.90;;;1.42;;
69401;SDS011;56589;51.992;5.924;2023-02-28T08:59:23;4.15;;;1.83;;
69401;SDS011;56589;51.992;5.924;2023-02-28T09:01:49;2.35;;;1.65;;
69401;SDS011;56589;51.992;5.924;2023-02-28T09:04:15;2.60;;;1.40;;
69401;SDS011;56589;51.992;5.924;2023-02-28T09:06:41;3.70;;;1.50;;
69401;SDS011;56589;51.992;5.924;2023-02-28T09:09:07;2.38;;;1.38;;
69401;SDS011;56589;51.992;5.924;2023-02-28T09:11:33;5.82;;;2.00;;
69401;SDS011;56589;51.992;5.924;2023-02-28T09:14:03;2.75;;;1.15;;
69401;SDS011;56589;51.992;5.924;2023-02-28T09:16:29;1.65;;;1.30;;
69401;SDS011;56589;51.992;5.924;2023-02-28T09:18:57;2.15;;;1.23;;
69401;SDS011;56589;51.992;5.924;2023-02-28T09:21:23;1.85;;;1.08;;
69401;SDS011;56589;51.992;5.924;2023-02-28T09:23:49;2.00;;;1.13;;
69401;SDS011;56589;51.992;5.924;2023-02-28T09:26:16;3.97;;;1.30;;
69401;SDS011;56589;51.992;5.924;2023-02-28T09:28:44;2.30;;;1.38;;
69401;SDS011;56589;51.992;5.924;2023-02-28T09:31:14;1.90;;;1.05;;
69401;SDS011;56589;51.992;5.924;2023-02-28T09:33:42;1.50;;;1.20;;
69401;SDS011;56589;51.992;5.924;2023-02-28T09:36:08;1.98;;;1.30;;
69401;SDS011;56589;51.992;5.924;2023-02-28T09:38:34;2.67;;;1.20;;
69401;SDS011;56589;51.992;5.924;2023-02-28T09:41:01;1.42;;;1.10;;
69401;SDS011;56589;51.992;5.924;2023-02-28T09:43:31;2.05;;;1.20;;
69401;SDS011;56589;51.992;5.924;2023-02-28T09:46:05;2.72;;;1.58;;
69401;SDS011;56589;51.992;5.924;2023-02-28T09:48:47;2.63;;;1.15;;
69401;SDS011;56589;51.992;5.924;2023-02-28T09:51:26;2.35;;;1.30;;
69401;SDS011;56589;51.992;5.924;2023-02-28T09:54:01;2.28;;;1.58;;
69401;SDS011;56589;51.992;5.924;2023-02-28T09:56:30;4.75;;;1.20;;
69401;SDS011;56589;51.992;5.924;2023-02-28T09:59:02;2.38;;;1.20;;
69401;SDS011;56589;51.992;5.924;2023-02-28T10:01:46;1.40;;;1.25;;
69401;SDS011;56589;51.992;5.924;2023-02-28T10:04:36;1.75;;;1.20;;
69401;SDS011;56589;51.992;5.924;2023-02-28T10:07:16;2.60;;;1.40;;
69401;SDS011;56589;51.992;5.924;2023-02-28T10:10:15;4.97;;;1.52;;
69401;SDS011;56589;51.992;5.924;2023-02-28T10:12:49;2.17;;;1.23;;
69401;SDS011;56589;51.992;5.924;2023-02-28T10:15:21;1.58;;;1.10;;
69401;SDS011;56589;51.992;5.924;2023-02-28T10:17:57;2.63;;;1.50;;
69401;SDS011;56589;51.992;5.924;2023-02-28T10:20:29;1.88;;;1.10;;
69401;SDS011;56589;51.992;5.924;2023-02-28T10:23:02;2.17;;;1.45;;
69401;SDS011;56589;51.992;5.924;2023-02-28T10:25:37;2.35;;;1.02;;
69401;SDS011;56589;51.992;5.924;2023-02-28T10:28:08;1.55;;;1.20;;
69401;SDS011;56589;51.992;5.924;2023-02-28T10:30:37;1.23;;;1.00;;
69401;SDS011;56589;51.992;5.924;2023-02-28T10:33:15;2.90;;;1.02;;
69401;SDS011;56589;51.992;5.924;2023-02-28T10:35:47;3.03;;;1.92;;
69401;SDS011;56589;51.992;5.924;2023-02-28T10:38:15;3.42;;;1.00;;
69401;SDS011;56589;51.992;5.924;2023-02-28T10:40:43;1.65;;;0.90;;
69401;SDS011;56589;51.992;5.924;2023-02-28T10:43:17;1.92;;;1.27;;
69401;SDS011;56589;51.992;5.924;2023-02-28T10:45:55;1.30;;;0.90;;
69401;SDS011;56589;51.992;5.924;2023-02-28T10:48:30;2.85;;;1.25;;
69401;SDS011;56589;51.992;5.924;2023-02-28T10:51:00;2.50;;;1.40;;
69401;SDS011;56589;51.992;5.924;2023-02-28T10:53:28;1.90;;;1.10;;
69401;SDS011;56589;51.992;5.924;2023-02-28T10:56:05;1.70;;;1.10;;
69401;SDS011;56589;51.992;5.924;2023-02-28T10:58:49;1.77;;;1.05;;
69401;SDS011;56589;51.992;5.924;2023-02-28T11:01:20;1.55;;;1.15;;
69401;SDS011;56589;51.992;5.924;2023-02-28T11:03:51;1.42;;;0.90;;
69401;SDS011;56589;51.992;5.924;2023-02-28T11:06:19;2.65;;;1.38;;
69401;SDS011;56589;51.992;5.924;2023-02-28T11:08:49;2.35;;;1.85;;
69401;SDS011;56589;51.992;5.924;2023-02-28T11:11:18;1.73;;;1.52;;
69401;SDS011;56589;51.992;5.924;2023-02-28T11:13:47;1.50;;;0.95;;
69401;SDS011;56589;51.992;5.924;2023-02-28T11:16:19;3.00;;;1.20;;
69401;SDS011;56589;51.992;5.924;2023-02-28T11:18:51;1.92;;;1.10;;
69401;SDS011;56589;51.992;5.924;2023-02-28T11:21:21;1.50;;;1.00;;
69401;SDS011;56589;51.992;5.924;2023-02-28T11:23:53;1.47;;;1.10;;
69401;SDS011;56589;51.992;5.924;2023-02-28T11:26:40;2.30;;;0.75;;
69401;SDS011;56589;51.992;5.924;2023-02-28T11:29:10;2.42;;;1.20;;
69401;SDS011;56589;51.992;5.924;2023-02-28T11:34:39;1.90;;;1.40;;
69401;SDS011;56589;51.992;5.924;2023-02-28T11:37:09;2.25;;;1.20;;
69401;SDS011;56589;51.992;5.924;2023-02-28T11:39:39;1.65;;;1.40;;
69401;SDS011;56589;51.992;5.924;2023-02-28T11:45:19;1.65;;;1.17;;
69401;SDS011;56589;51.992;5.924;2023-02-28T11:48:14;3.47;;;1.00;;
69401;SDS011;56589;51.992;5.924;2023-02-28T11:50:52;1.50;;;1.00;;
69401;SDS011;56589;51.992;5.924;2023-02-28T11:53:37;2.13;;;1.38;;
69401;SDS011;56589;51.992;5.924;2023-02-28T11:56:23;3.05;;;1.13;;
69401;SDS011;56589;51.992;5.924;2023-02-28T11:59:01;3.25;;;1.40;;
69401;SDS011;56589;51.992;5.924;2023-02-28T12:02:01;1.75;;;1.10;;
69401;SDS011;56589;51.992;5.924;2023-02-28T12:04:51;2.08;;;1.23;;
69401;SDS011;56589;51.992;5.924;2023-02-28T12:07:41;2.75;;;1.20;;
69401;SDS011;56589;51.992;5.924;2023-02-28T12:10:22;1.90;;;1.40;;
69401;SDS011;56589;51.992;5.924;2023-02-28T12:13:00;1.77;;;1.30;;
69401;SDS011;56589;51.992;5.924;2023-02-28T12:15:47;3.42;;;1.30;;
69401;SDS011;56589;51.992;5.924;2023-02-28T12:18:42;2.40;;;1.20;;
69401;SDS011;56589;51.992;5.924;2023-02-28T12:21:29;2.40;;;1.30;;
69401;SDS011;56589;51.992;5.924;2023-02-28T12:24:24;2.03;;;1.50;;
69401;SDS011;56589;51.992;5.924;2023-02-28T12:27:12;2.85;;;1.40;;
69401;SDS011;56589;51.992;5.924;2023-02-28T12:29:46;1.83;;;1.35;;
69401;SDS011;56589;51.992;5.924;2023-02-28T12:32:21;2.92;;;2.08;;
69401;SDS011;56589;51.992;5.924;2023-02-28T12:34:55;4.40;;;1.95;;
69401;SDS011;56589;51.992;5.924;2023-02-28T12:37:31;3.55;;;1.65;;
69401;SDS011;56589;51.992;5.924;2023-02-28T12:40:08;2.00;;;1.70;;
69401;SDS011;56589;51.992;5.924;2023-02-28T12:42:41;2.13;;;1.50;;
69401;SDS011;56589;51.992;5.924;2023-02-28T12:45:13;4.15;;;2.28;;
69401;SDS011;56589;51.992;5.924;2023-02-28T12:47:46;3.63;;;1.60;;
69401;SDS011;56589;51.992;5.924;2023-02-28T12:50:22;2.22;;;1.55;;
69401;SDS011;56589;51.992;5.924;2023-02-28T12:52:51;2.78;;;1.50;;
69401;SDS011;56589;51.992;5.924;2023-02-28T12:55:33;5.40;;;1.50;;
69401;SDS011;56589;51.992;5.924;2023-02-28T12:58:10;0.88;;;0.82;;
69401;SDS011;56589;51.992;5.924;2023-02-28T13:00:48;1.70;;;0.98;;
69401;SDS011;56589;51.992;5.924;2023-02-28T13:03:52;2.72;;;1.45;;
69401;SDS011;56589;51.992;5.924;2023-02-28T13:07:04;2.50;;;0.95;;
69401;SDS011;56589;51.992;5.924;2023-02-28T13:09:55;2.80;;;1.40;;
69401;SDS011;56589;51.992;5.924;2023-02-28T13:12:27;2.22;;;1.13;;
69401;SDS011;56589;51.992;5.924;2023-02-28T13:15:00;3.75;;;1.35;;
69401;SDS011;56589;51.992;5.924;2023-02-28T13:17:38;3.42;;;1.13;;
69401;SDS011;56589;51.992;5.924;2023-02-28T13:20:13;1.98;;;1.08;;
69401;SDS011;56589;51.992;5.924;2023-02-28T13:22:43;2.47;;;1.40;;
69401;SDS011;56589;51.992;5.924;2023-02-28T13:31:33;3.00;;;1.80;;
69401;SDS011;56589;51.992;5.924;2023-02-28T13:38:16;1.88;;;1.35;;
69401;SDS011;56589;51.992;5.924;2023-02-28T13:40:49;2.75;;;1.30;;
69401;SDS011;56589;51.992;5.924;2023-02-28T13:43:16;2.42;;;1.50;;
69401;SDS011;56589;51.992;5.924;2023-02-28T13:48:40;2.92;;;1.40;;
69401;SDS011;56589;51.992;5.924;2023-02-28T13:54:21;2.63;;;1.35;;
69401;SDS011;56589;51.992;5.924;2023-02-28T13:57:11;2.47;;;1.80;;
69401;SDS011;56589;51.992;5.924;2023-02-28T13:59:52;2.42;;;1.30;;
69401;SDS011;56589;51.992;5.924;2023-02-28T14:02:54;2.00;;;1.42;;
69401;SDS011;56589;51.992;5.924;2023-02-28T14:05:40;1.92;;;1.20;;
69401;SDS011;56589;51.992;5.924;2023-02-28T14:08:10;1.50;;;1.40;;
69401;SDS011;56589;51.992;5.924;2023-02-28T14:10:41;1.80;;;1.13;;
69401;SDS011;56589;51.992;5.924;2023-02-28T14:13:11;2.67;;;1.30;;
69401;SDS011;56589;51.992;5.924;2023-02-28T14:18:23;2.60;;;1.30;;
69401;SDS011;56589;51.992;5.924;2023-02-28T14:21:01;3.65;;;1.40;;
69401;SDS011;56589;51.992;5.924;2023-02-28T14:23:47;4.78;;;1.30;;
69401;SDS011;56589;51.992;5.924;2023-02-28T14:26:53;1.90;;;1.25;;
69401;SDS011;56589;51.992;5.924;2023-02-28T14:29:44;3.03;;;1.42;;
69401;SDS011;56589;51.992;5.924;2023-02-28T14:32:39;5.38;;;1.75;;
69401;SDS011;56589;51.992;5.924;2023-02-28T14:35:16;3.10;;;1.90;;
69401;SDS011;56589;51.992;5.924;2023-02-28T14:38:17;2.55;;;1.27;;
69401;SDS011;56589;51.992;5.924;2023-02-28T14:40:51;2.10;;;1.42;;
69401;SDS011;56589;51.992;5.924;2023-02-28T14:43:22;3.30;;;1.50;;
69401;SDS011;56589;51.992;5.924;2023-02-28T14:45:50;2.28;;;1.63;;
69401;SDS011;56589;51.992;5.924;2023-02-28T14:48:20;5.65;;;1.20;;
69401;SDS011;56589;51.992;5.924;2023-02-28T14:50:49;2.83;;;1.40;;
69401;SDS011;56589;51.992;5.924;2023-02-28T14:53:22;2.97;;;1.27;;
69401;SDS011;56589;51.992;5.924;2023-02-28T14:58:21;2.55;;;2.08;;
69401;SDS011;56589;51.992;5.924;2023-02-28T15:00:51;2.70;;;1.60;;
69401;SDS011;56589;51.992;5.924;2023-02-28T15:03:20;2.17;;;1.20;;
69401;SDS011;56589;51.992;5.924;2023-02-28T15:05:53;4.00;;;1.80;;
69401;SDS011;56589;51.992;5.924;2023-02-28T15:08:25;3.33;;;1.65;;
69401;SDS011;56589;51.992;5.924;2023-02-28T15:10:53;2.17;;;1.30;;
69401;SDS011;56589;51.992;5.924;2023-02-28T15:13:22;3.30;;;1.65;;
69401;SDS011;56589;51.992;5.924;2023-02-28T15:15:57;2.40;;;1.17;;
69401;SDS011;56589;51.992;5.924;2023-02-28T15:18:30;2.28;;;1.23;;
69401;SDS011;56589;51.992;5.924;2023-02-28T15:21:12;4.00;;;1.40;;
69401;SDS011;56589;51.992;5.924;2023-02-28T15:23:45;1.98;;;1.30;;
69401;SDS011;56589;51.992;5.924;2023-02-28T15:26:18;2.45;;;1.50;;
69401;SDS011;56589;51.992;5.924;2023-02-28T15:28:48;2.40;;;1.35;;
69401;SDS011;56589;51.992;5.924;2023-02-28T15:31:21;1.88;;;1.13;;
69401;SDS011;56589;51.992;5.924;2023-02-28T15:33:52;2.22;;;1.63;;
69401;SDS011;56589;51.992;5.924;2023-02-28T15:36:20;5.38;;;1.40;;
69401;SDS011;56589;51.992;5.924;2023-02-28T15:38:54;2.25;;;1.40;;
69401;SDS011;56589;51.992;5.924;2023-02-28T15:41:27;2.50;;;1.35;;
69401;SDS011;56589;51.992;5.924;2023-02-28T15:46:53;2.72;;;1.00;;
69401;SDS011;56589;51.992;5.924;2023-02-28T15:49:24;2.15;;;1.25;;
69401;SDS011;56589;51.992;5.924;2023-02-28T15:51:51;3.22;;;1.40;;
69401;SDS011;56589;51.992;5.924;2023-02-28T15:54:24;2.63;;;1.90;;
69401;SDS011;56589;51.992;5.924;2023-02-28T15:56:56;1.90;;;1.13;;
69401;SDS011;56589;51.992;5.924;2023-02-28T15:59:27;2.60;;;1.27;;
69401;SDS011;56589;51.992;5.924;2023-02-28T16:02:03;3.33;;;1.38;;